Time;durP1;ratioP1;P1;durP2;ratioP2;P2;SDS_P1;SDS_P2;PMS_P1;PMS_P2;Temp;Humidity;BMP_temperature;BMP_pressure;BME280_temperature;BME280_humidity;BME280_pressure;Samples;Min_cycle;Max_cycle;Signal;HPM_P1;HPM_P2
2023/09/09 00:01:15;;;;;;;1.05;0.80;;;;;;;;;;5065144;28;20044;-74
2023/09/09 00:03:45;;;;;;;2.63;0.60;;;;;;;;;;5064459;28;20055;-75
2023/09/09 00:06:16;;;;;;;0.90;0.70;;;;;;;;;;5062603;28;20526;-76
2023/09/09 00:08:47;;;;;;;1.42;0.60;;;;;;;;;;5064582;28;20064;-74
2023/09/09 00:11:18;;;;;;;0.50;0.45;;;;;;;;;;5064074;28;20385;-73
2023/09/09 00:13:51;;;;;;;1.25;0.55;;;;;;;;;;5064398;28;20044;-76
2023/09/09 00:16:22;;;;;;;2.40;0.70;;;;;;;;;;5064296;28;20051;-75
2023/09/09 00:18:55;;;;;;;1.08;0.60;;;;;;;;;;5063705;28;20067;-76
2023/09/09 00:21:26;;;;;;;0.47;0.47;;;;;;;;;;5063951;28;20048;-75
2023/09/09 00:23:56;;;;;;;2.65;0.70;;;;;;;;;;5063590;28;20060;-76
2023/09/09 00:26:28;;;;;;;0.70;0.70;;;;;;;;;;5062994;28;20571;-76
2023/09/09 00:28:59;;;;;;;1.77;0.60;;;;;;;;;;5064115;28;20396;-76
2023/09/09 00:31:30;;;;;;;2.03;0.50;;;;;;;;;;5061953;28;20049;-76
2023/09/09 00:34:01;;;;;;;5.25;0.70;;;;;;;;;;5061475;28;20147;-76
2023/09/09 00:36:31;;;;;;;1.58;0.40;;;;;;;;;;5062656;28;20424;-75
2023/09/09 00:39:04;;;;;;;2.40;0.82;;;;;;;;;;5062855;28;20055;-76
2023/09/09 00:41:34;;;;;;;0.57;0.40;;;;;;;;;;5062233;28;20064;-76
2023/09/09 00:44:07;;;;;;;1.95;0.65;;;;;;;;;;5061214;28;20405;-75
2023/09/09 00:46:37;;;;;;;1.20;0.73;;;;;;;;;;5061813;28;20059;-75
2023/09/09 00:49:08;;;;;;;1.33;0.75;;;;;;;;;;5063003;28;20044;-74
2023/09/09 00:51:39;;;;;;;2.55;0.70;;;;;;;;;;5063087;28;20521;-75
2023/09/09 00:54:10;;;;;;;1.52;0.60;;;;;;;;;;5060955;28;20044;-74
2023/09/09 00:56:42;;;;;;;0.52;0.30;;;;;;;;;;5064278;28;20411;-74
2023/09/09 00:59:13;;;;;;;3.50;0.77;;;;;;;;;;5063085;28;20075;-75
2023/09/09 01:01:45;;;;;;;1.05;0.60;;;;;;;;;;5061977;28;20062;-75
2023/09/09 01:04:15;;;;;;;0.65;0.60;;;;;;;;;;5063264;28;20044;-75
2023/09/09 01:06:46;;;;;;;1.83;0.80;;;;;;;;;;5063011;28;20036;-76
2023/09/09 01:09:17;;;;;;;1.35;0.52;;;;;;;;;;5063293;28;20053;-76
2023/09/09 01:11:50;;;;;;;0.93;0.32;;;;;;;;;;5060627;28;20044;-75
2023/09/09 01:14:20;;;;;;;0.85;0.63;;;;;;;;;;5062064;28;20048;-75
2023/09/09 01:16:55;;;;;;;2.83;0.70;;;;;;;;;;5062875;28;20499;-75
2023/09/09 01:19:27;;;;;;;1.58;0.80;;;;;;;;;;5063030;28;20071;-75
2023/09/09 01:22:06;;;;;;;1.60;0.73;;;;;;;;;;5060608;28;20055;-75
2023/09/09 01:24:40;;;;;;;1.52;0.82;;;;;;;;;;5063239;28;20056;-75
2023/09/09 01:27:10;;;;;;;1.55;0.70;;;;;;;;;;5063125;28;20037;-75
2023/09/09 01:29:42;;;;;;;2.85;0.52;;;;;;;;;;5060794;28;20057;-76
2023/09/09 01:32:14;;;;;;;3.88;0.63;;;;;;;;;;5063164;28;20059;-75
2023/09/09 01:34:44;;;;;;;1.08;0.50;;;;;;;;;;5060834;28;20546;-76
2023/09/09 01:37:14;;;;;;;0.95;0.50;;;;;;;;;;5062937;28;20044;-75
2023/09/09 01:39:45;;;;;;;2.25;0.63;;;;;;;;;;5062733;28;20048;-75
2023/09/09 01:42:16;;;;;;;0.40;0.40;;;;;;;;;;5062594;28;20455;-75
2023/09/09 01:44:47;;;;;;;1.02;0.55;;;;;;;;;;5061463;28;20503;-75
2023/09/09 01:47:18;;;;;;;2.05;0.70;;;;;;;;;;5061004;28;20055;-75
2023/09/09 01:49:50;;;;;;;0.40;0.40;;;;;;;;;;5061213;28;20051;-77
2023/09/09 01:52:21;;;;;;;1.35;0.40;;;;;;;;;;5061845;28;20059;-75
2023/09/09 01:54:52;;;;;;;1.75;0.60;;;;;;;;;;5060944;28;20044;-75
2023/09/09 01:57:26;;;;;;;0.90;0.43;;;;;;;;;;5061827;28;20537;-75
2023/09/09 01:59:58;;;;;;;0.60;0.57;;;;;;;;;;5059681;28;20055;-75
2023/09/09 02:02:29;;;;;;;1.65;0.45;;;;;;;;;;5061073;28;20511;-75
2023/09/09 02:05:02;;;;;;;2.53;1.38;;;;;;;;;;5061015;28;20808;-74
2023/09/09 02:07:34;;;;;;;2.03;1.30;;;;;;;;;;5062275;28;20044;-75
2023/09/09 02:10:04;;;;;;;3.25;1.15;;;;;;;;;;5060169;28;20063;-75
2023/09/09 02:12:36;;;;;;;1.60;0.80;;;;;;;;;;5062342;28;20045;-75
2023/09/09 02:15:10;;;;;;;2.08;0.60;;;;;;;;;;5060973;28;20546;-74
2023/09/09 02:17:40;;;;;;;2.78;0.60;;;;;;;;;;5062341;28;20051;-75
2023/09/09 02:20:10;;;;;;;1.65;0.82;;;;;;;;;;5062285;28;20498;-76
2023/09/09 02:22:42;;;;;;;1.85;0.80;;;;;;;;;;5061682;28;20044;-76
2023/09/09 02:25:13;;;;;;;1.75;0.73;;;;;;;;;;5062046;28;20528;-74
2023/09/09 02:27:45;;;;;;;2.80;0.52;;;;;;;;;;5060031;28;20416;-75
2023/09/09 02:30:15;;;;;;;1.63;0.70;;;;;;;;;;5061579;28;20051;-75
2023/09/09 02:32:47;;;;;;;2.65;0.80;;;;;;;;;;5060257;28;20430;-74
2023/09/09 02:35:19;;;;;;;1.10;0.70;;;;;;;;;;5062028;28;20048;-75
2023/09/09 02:37:49;;;;;;;1.38;0.70;;;;;;;;;;5060307;28;20574;-75
2023/09/09 02:40:19;;;;;;;3.35;1.00;;;;;;;;;;5062113;28;20040;-75
2023/09/09 02:42:49;;;;;;;3.90;0.80;;;;;;;;;;5061475;28;20059;-74
2023/09/09 02:45:19;;;;;;;4.00;1.00;;;;;;;;;;5061492;28;20056;-75
2023/09/09 02:47:50;;;;;;;4.28;1.10;;;;;;;;;;5059943;28;20048;-74
2023/09/09 02:50:21;;;;;;;7.07;1.33;;;;;;;;;;5060841;28;20534;-75
2023/09/09 02:52:51;;;;;;;4.05;1.00;;;;;;;;;;5059884;28;20040;-75
2023/09/09 02:55:22;;;;;;;3.60;0.70;;;;;;;;;;5060794;28;20059;-75
2023/09/09 02:57:53;;;;;;;5.68;1.00;;;;;;;;;;5062073;28;20052;-75
2023/09/09 03:00:24;;;;;;;4.80;0.90;;;;;;;;;;5061918;28;20486;-75
2023/09/09 03:02:54;;;;;;;5.68;1.02;;;;;;;;;;5061163;28;20040;-76
2023/09/09 03:05:25;;;;;;;3.70;0.90;;;;;;;;;;5061457;28;20097;-76
2023/09/09 03:07:58;;;;;;;5.78;1.25;;;;;;;;;;5059541;28;20056;-75
2023/09/09 03:10:29;;;;;;;4.53;1.13;;;;;;;;;;5061601;28;20049;-75
2023/09/09 03:12:59;;;;;;;4.90;0.82;;;;;;;;;;5065266;28;20047;-75
2023/09/09 03:15:30;;;;;;;2.67;0.90;;;;;;;;;;5063715;28;20063;-75
2023/09/09 03:18:01;;;;;;;4.60;1.05;;;;;;;;;;5047960;28;20065;-74
2023/09/09 03:20:32;;;;;;;3.00;0.73;;;;;;;;;;5063789;28;20052;-75
2023/09/09 03:23:03;;;;;;;2.03;0.80;;;;;;;;;;5063204;28;20075;-74
2023/09/09 03:25:33;;;;;;;4.63;1.10;;;;;;;;;;5065650;28;20040;-75
2023/09/09 03:28:04;;;;;;;2.22;1.00;;;;;;;;;;5062997;28;20056;-75
2023/09/09 03:30:57;;;;;;;5.22;1.13;;;;;;;;;;5063418;28;20418;-75
2023/09/09 03:33:31;;;;;;;3.05;0.70;;;;;;;;;;5062870;28;20411;-75
2023/09/09 03:36:02;;;;;;;7.03;0.90;;;;;;;;;;5065122;28;20075;-75
2023/09/09 03:38:32;;;;;;;7.60;1.00;;;;;;;;;;5063122;28;20495;-75
2023/09/09 03:41:07;;;;;;;2.60;0.80;;;;;;;;;;5063513;28;20512;-75
2023/09/09 03:43:39;;;;;;;5.80;1.10;;;;;;;;;;5063493;28;20393;-75
2023/09/09 03:46:10;;;;;;;2.58;0.80;;;;;;;;;;5063412;28;20064;-74
2023/09/09 03:48:41;;;;;;;1.63;0.75;;;;;;;;;;5064840;28;20063;-75
2023/09/09 03:51:14;;;;;;;2.78;0.75;;;;;;;;;;5064878;28;20047;-74
2023/09/09 03:53:44;;;;;;;4.40;1.17;;;;;;;;;;5063053;28;20049;-75
2023/09/09 03:56:17;;;;;;;2.13;0.88;;;;;;;;;;5064279;28;20060;-74
2023/09/09 03:58:48;;;;;;;6.53;0.90;;;;;;;;;;5065050;28;20059;-74
2023/09/09 04:01:18;;;;;;;7.95;0.98;;;;;;;;;;5064547;28;20059;-75
2023/09/09 04:03:48;;;;;;;5.93;1.17;;;;;;;;;;5062908;28;20057;-74
2023/09/09 04:06:19;;;;;;;3.72;0.93;;;;;;;;;;5061999;28;20052;-75
2023/09/09 04:08:55;;;;;;;5.68;1.30;;;;;;;;;;5063311;28;20048;-74
2023/09/09 04:11:27;;;;;;;2.53;0.77;;;;;;;;;;5063259;28;20056;-75
2023/09/09 04:13:59;;;;;;;3.72;0.98;;;;;;;;;;5064237;28;20048;-75
2023/09/09 04:16:29;;;;;;;5.35;1.35;;;;;;;;;;5063269;28;20052;-75
2023/09/09 04:19:00;;;;;;;7.47;1.10;;;;;;;;;;5062784;28;20570;-74
2023/09/09 04:21:31;;;;;;;5.95;0.90;;;;;;;;;;5064031;28;20052;-74
2023/09/09 04:24:00;;;;;;;5.72;0.90;;;;;;;;;;5061929;28;20063;-74
2023/09/09 04:26:31;;;;;;;7.10;1.25;;;;;;;;;;5062244;28;20517;-75
2023/09/09 04:29:03;;;;;;;3.80;1.10;;;;;;;;;;5062409;28;20068;-74
2023/09/09 04:31:35;;;;;;;3.88;1.02;;;;;;;;;;5062384;28;20083;-75
2023/09/09 04:34:06;;;;;;;5.25;1.20;;;;;;;;;;5063716;28;20495;-73
2023/09/09 04:36:36;;;;;;;7.38;0.95;;;;;;;;;;5063852;28;20048;-75
2023/09/09 04:39:06;;;;;;;10.15;1.13;;;;;;;;;;5062369;28;20052;-75
2023/09/09 04:41:37;;;;;;;5.20;1.10;;;;;;;;;;5062020;28;20052;-75
2023/09/09 04:44:10;;;;;;;5.38;1.13;;;;;;;;;;5062346;28;20526;-74
2023/09/09 04:46:40;;;;;;;8.70;1.48;;;;;;;;;;5062437;28;20522;-75
2023/09/09 04:49:11;;;;;;;5.25;1.17;;;;;;;;;;5062862;28;20053;-75
2023/09/09 04:51:41;;;;;;;1.98;1.00;;;;;;;;;;5063605;28;20044;-75
2023/09/09 04:54:13;;;;;;;8.52;1.20;;;;;;;;;;5062042;28;20530;-74
2023/09/09 04:56:46;;;;;;;2.90;0.90;;;;;;;;;;5062003;28;20135;-75
2023/09/09 04:59:17;;;;;;;4.65;1.00;;;;;;;;;;5063728;28;20044;-74
2023/09/09 05:01:47;;;;;;;5.50;0.90;;;;;;;;;;5064465;28;20044;-75
2023/09/09 05:04:17;;;;;;;6.30;0.82;;;;;;;;;;5063509;28;20393;-75
2023/09/09 05:06:49;;;;;;;5.15;0.98;;;;;;;;;;5061957;28;20063;-74
2023/09/09 05:09:21;;;;;;;3.00;0.90;;;;;;;;;;5062721;28;20044;-74
2023/09/09 05:11:51;;;;;;;4.85;0.90;;;;;;;;;;5063082;28;20055;-75
2023/09/09 05:14:22;;;;;;;3.15;0.90;;;;;;;;;;5045526;28;20048;-74
2023/09/09 05:16:52;;;;;;;6.18;1.08;;;;;;;;;;5061114;28;20067;-74
2023/09/09 05:19:24;;;;;;;7.68;0.90;;;;;;;;;;5063177;28;20037;-74
2023/09/09 05:21:54;;;;;;;2.60;1.00;;;;;;;;;;5061333;28;20060;-74
2023/09/09 05:24:24;;;;;;;6.50;1.42;;;;;;;;;;5061475;28;20059;-75
2023/09/09 05:26:55;;;;;;;2.45;0.80;;;;;;;;;;5045354;28;20071;-74
2023/09/09 05:29:25;;;;;;;6.07;1.00;;;;;;;;;;5061420;28;20344;-74
2023/09/09 05:31:56;;;;;;;3.85;0.82;;;;;;;;;;5062862;28;20056;-75
2023/09/09 05:34:26;;;;;;;1.40;0.60;;;;;;;;;;5061235;28;20068;-74
2023/09/09 05:36:57;;;;;;;0.80;0.60;;;;;;;;;;5063167;28;20051;-75
2023/09/09 05:39:27;;;;;;;2.00;0.70;;;;;;;;;;5061643;28;20059;-75
2023/09/09 05:41:58;;;;;;;3.58;0.90;;;;;;;;;;5063207;28;20060;-74
2023/09/09 05:44:29;;;;;;;6.30;0.57;;;;;;;;;;5062572;28;20056;-74
2023/09/09 05:46:59;;;;;;;6.03;0.77;;;;;;;;;;5061080;28;20056;-75
2023/09/09 05:49:33;;;;;;;5.82;0.70;;;;;;;;;;5062757;28;20697;-75
2023/09/09 05:52:12;;;;;;;2.95;0.50;;;;;;;;;;5060586;28;20060;-75
2023/09/09 05:54:43;;;;;;;4.90;0.75;;;;;;;;;;5062111;28;20056;-75
2023/09/09 05:57:14;;;;;;;5.13;0.70;;;;;;;;;;5060559;28;20056;-75
2023/09/09 05:59:45;;;;;;;8.48;0.82;;;;;;;;;;5060823;28;20057;-75
2023/09/09 06:02:17;;;;;;;1.15;0.50;;;;;;;;;;5060709;28;20885;-75
2023/09/09 06:04:47;;;;;;;3.63;0.60;;;;;;;;;;5060134;28;20423;-75
2023/09/09 06:07:19;;;;;;;1.33;0.43;;;;;;;;;;5060964;28;20048;-75
2023/09/09 06:09:50;;;;;;;3.70;0.65;;;;;;;;;;5061819;28;20514;-75
2023/09/09 06:12:21;;;;;;;0.77;0.40;;;;;;;;;;5044146;28;20048;-76
2023/09/09 06:14:51;;;;;;;1.25;0.73;;;;;;;;;;5061817;28;20059;-76
2023/09/09 06:17:25;;;;;;;4.22;1.13;;;;;;;;;;5060181;28;20533;-75
2023/09/09 06:19:56;;;;;;;4.40;0.70;;;;;;;;;;5060150;28;20056;-75
2023/09/09 06:22:27;;;;;;;1.52;0.50;;;;;;;;;;5060402;28;20431;-76
2023/09/09 06:24:57;;;;;;;2.83;0.52;;;;;;;;;;5062494;28;20058;-76
2023/09/09 06:27:27;;;;;;;6.53;0.70;;;;;;;;;;5060162;28;20397;-76
2023/09/09 06:29:57;;;;;;;2.15;0.43;;;;;;;;;;5061759;28;20048;-76
2023/09/09 06:32:29;;;;;;;1.13;0.40;;;;;;;;;;5060762;28;20044;-76
2023/09/09 06:35:00;;;;;;;3.53;0.68;;;;;;;;;;5060759;28;20057;-76
2023/09/09 06:37:30;;;;;;;2.53;0.68;;;;;;;;;;5061927;28;20051;-76
2023/09/09 06:40:00;;;;;;;2.58;0.60;;;;;;;;;;5061728;28;20123;-76
2023/09/09 06:42:32;;;;;;;2.88;1.00;;;;;;;;;;5061661;28;20052;-76
2023/09/09 06:45:04;;;;;;;2.70;0.55;;;;;;;;;;5061903;28;20044;-76
2023/09/09 06:47:34;;;;;;;0.70;0.70;;;;;;;;;;5068257;28;20744;-76
2023/09/09 06:50:05;;;;;;;4.20;0.57;;;;;;;;;;5068754;28;20549;-76
2023/09/09 06:52:38;;;;;;;3.17;0.65;;;;;;;;;;5067606;28;20511;-76
2023/09/09 06:55:09;;;;;;;1.98;0.65;;;;;;;;;;5067901;28;20037;-76
2023/09/09 06:57:39;;;;;;;3.50;0.80;;;;;;;;;;5067716;28;20056;-76
2023/09/09 07:00:10;;;;;;;2.95;0.70;;;;;;;;;;5067976;28;20404;-76
2023/09/09 07:02:40;;;;;;;0.90;0.60;;;;;;;;;;5068760;28;20044;-76
2023/09/09 07:05:17;;;;;;;2.78;0.60;;;;;;;;;;5069726;28;20460;-76
2023/09/09 07:07:48;;;;;;;2.47;0.60;;;;;;;;;;5068291;28;20040;-76
2023/09/09 07:10:18;;;;;;;5.20;0.75;;;;;;;;;;5067566;28;20044;-76
2023/09/09 07:12:49;;;;;;;1.92;0.60;;;;;;;;;;5067770;28;20044;-76
2023/09/09 07:15:20;;;;;;;3.22;0.88;;;;;;;;;;5067560;28;20060;-74
2023/09/09 07:17:51;;;;;;;3.60;0.82;;;;;;;;;;5068312;28;20048;-74
2023/09/09 07:20:21;;;;;;;1.02;0.47;;;;;;;;;;5068313;28;20408;-75
2023/09/09 07:22:52;;;;;;;2.53;0.90;;;;;;;;;;5067232;28;20055;-74
2023/09/09 07:25:22;;;;;;;2.55;0.82;;;;;;;;;;5068337;28;20059;-75
2023/09/09 07:27:53;;;;;;;2.35;0.60;;;;;;;;;;5068168;28;20581;-74
2023/09/09 07:30:23;;;;;;;1.25;0.60;;;;;;;;;;5068691;28;20473;-75
2023/09/09 07:32:56;;;;;;;2.40;0.73;;;;;;;;;;5067990;28;20131;-75
2023/09/09 07:35:27;;;;;;;1.02;0.70;;;;;;;;;;5066570;28;20811;-75
2023/09/09 07:37:57;;;;;;;4.22;0.82;;;;;;;;;;5068801;28;20048;-76
2023/09/09 07:40:28;;;;;;;3.28;1.30;;;;;;;;;;5068096;28;20055;-74
2023/09/09 07:42:59;;;;;;;2.30;0.80;;;;;;;;;;5068398;28;20059;-75
2023/09/09 07:45:30;;;;;;;1.92;0.88;;;;;;;;;;5067608;28;20051;-75
2023/09/09 07:48:00;;;;;;;2.83;1.00;;;;;;;;;;5068352;28;20041;-75
2023/09/09 07:50:30;;;;;;;2.63;0.68;;;;;;;;;;5067779;28;20044;-75
2023/09/09 07:53:01;;;;;;;4.90;1.00;;;;;;;;;;5068016;28;20515;-75
2023/09/09 07:55:33;;;;;;;6.53;1.00;;;;;;;;;;5067530;28;20130;-75
2023/09/09 07:58:03;;;;;;;1.55;0.88;;;;;;;;;;5064107;28;20049;-75
2023/09/09 08:00:36;;;;;;;5.55;1.42;;;;;;;;;;5065132;28;20045;-74
2023/09/09 08:03:10;;;;;;;3.47;0.98;;;;;;;;;;5062916;28;20059;-75
2023/09/09 08:05:42;;;;;;;3.40;0.80;;;;;;;;;;5064434;28;20419;-75
2023/09/09 08:08:13;;;;;;;3.50;0.90;;;;;;;;;;5064466;28;20048;-74
2023/09/09 08:10:44;;;;;;;2.45;1.02;;;;;;;;;;5064115;28;20044;-75
2023/09/09 08:13:14;;;;;;;1.02;0.70;;;;;;;;;;5063836;28;20052;-75
2023/09/09 08:15:45;;;;;;;2.67;1.10;;;;;;;;;;5064217;28;20419;-74
2023/09/09 08:18:15;;;;;;;4.55;0.93;;;;;;;;;;5062830;28;20047;-74
2023/09/09 08:20:51;;;;;;;1.98;0.90;;;;;;;;;;5062960;28;20048;-75
2023/09/09 08:23:22;;;;;;;1.80;1.00;;;;;;;;;;5064561;28;20048;-74
2023/09/09 08:25:52;;;;;;;1.75;1.02;;;;;;;;;;5065031;28;20044;-75
2023/09/09 08:28:23;;;;;;;2.83;1.10;;;;;;;;;;5064651;28;20052;-75
2023/09/09 08:31:02;;;;;;;4.18;1.00;;;;;;;;;;5064014;28;20053;-74
2023/09/09 08:33:33;;;;;;;1.92;0.80;;;;;;;;;;5063696;28;20056;-74
2023/09/09 08:36:05;;;;;;;3.33;1.00;;;;;;;;;;5064245;28;20049;-74
2023/09/09 08:38:36;;;;;;;3.85;1.02;;;;;;;;;;5063937;28;20051;-75
2023/09/09 08:41:22;;;;;;;1.60;0.80;;;;;;;;;;5063647;28;20040;-74
2023/09/09 08:44:14;;;;;;;3.92;1.00;;;;;;;;;;5062290;28;20055;-74
2023/09/09 08:46:45;;;;;;;3.85;0.88;;;;;;;;;;5063453;28;20060;-73
2023/09/09 08:49:21;;;;;;;2.15;0.82;;;;;;;;;;5063455;28;20051;-74
2023/09/09 08:52:03;;;;;;;4.35;0.80;;;;;;;;;;5062973;28;20051;-74
2023/09/09 08:54:34;;;;;;;2.47;0.90;;;;;;;;;;5063867;28;20063;-74
2023/09/09 08:57:05;;;;;;;2.33;0.90;;;;;;;;;;5064138;28;20044;-74
2023/09/09 08:59:44;;;;;;;1.95;0.73;;;;;;;;;;5063778;28;20400;-75
2023/09/09 09:02:15;;;;;;;1.38;0.90;;;;;;;;;;5063354;28;20479;-74
2023/09/09 09:04:46;;;;;;;3.15;0.90;;;;;;;;;;5063554;28;20059;-74
2023/09/09 09:07:18;;;;;;;4.75;1.02;;;;;;;;;;5063333;28;20415;-74
2023/09/09 09:09:48;;;;;;;3.90;1.20;;;;;;;;;;5062353;28;20055;-74
2023/09/09 09:12:19;;;;;;;3.38;1.00;;;;;;;;;;5063434;28;20049;-74
2023/09/09 09:14:49;;;;;;;3.13;1.40;;;;;;;;;;5063246;28;20052;-75
2023/09/09 09:17:20;;;;;;;1.50;1.00;;;;;;;;;;5063585;28;20060;-75
2023/09/09 09:19:51;;;;;;;4.28;0.98;;;;;;;;;;5062859;28;20543;-75
2023/09/09 09:22:23;;;;;;;4.72;1.05;;;;;;;;;;5063048;28;20530;-75
2023/09/09 09:24:53;;;;;;;3.22;1.00;;;;;;;;;;5063273;28;20515;-75
2023/09/09 09:27:23;;;;;;;4.13;1.00;;;;;;;;;;5062877;28;20051;-76
2023/09/09 09:29:54;;;;;;;18.17;1.35;;;;;;;;;;5063220;28;20056;-75
2023/09/09 09:32:43;;;;;;;2.50;0.73;;;;;;;;;;5062967;28;20045;-76
2023/09/09 09:35:24;;;;;;;4.45;0.75;;;;;;;;;;5063162;28;20496;-76
2023/09/09 09:37:58;;;;;;;10.30;1.05;;;;;;;;;;5061942;28;20060;-75
2023/09/09 09:40:30;;;;;;;0.90;0.50;;;;;;;;;;5062891;28;20512;-75
2023/09/09 09:43:03;;;;;;;0.63;0.52;;;;;;;;;;5061883;28;20048;-75
2023/09/09 09:45:33;;;;;;;1.40;0.50;;;;;;;;;;5062286;28;20040;-75
2023/09/09 09:48:04;;;;;;;0.93;0.40;;;;;;;;;;5062742;28;20052;-76
2023/09/09 09:50:37;;;;;;;0.80;0.60;;;;;;;;;;5062124;28;20071;-76
2023/09/09 09:53:09;;;;;;;0.77;0.65;;;;;;;;;;5070812;28;20422;-75
2023/09/09 09:55:44;;;;;;;1.00;0.55;;;;;;;;;;5082379;28;20052;-75
2023/09/09 09:58:23;;;;;;;1.88;0.60;;;;;;;;;;5082408;28;20051;-74
2023/09/09 10:00:55;;;;;;;1.45;0.30;;;;;;;;;;5081868;28;20055;-74
2023/09/09 10:03:27;;;;;;;0.68;0.45;;;;;;;;;;5082407;28;20402;-74
2023/09/09 10:05:58;;;;;;;1.75;0.70;;;;;;;;;;5082488;28;20503;-74
2023/09/09 10:08:35;;;;;;;0.40;0.40;;;;;;;;;;5082370;28;20059;-74
2023/09/09 10:11:10;;;;;;;2.67;0.50;;;;;;;;;;5081749;28;20040;-74
2023/09/09 10:13:56;;;;;;;0.50;0.40;;;;;;;;;;5082026;28;20056;-75
2023/09/09 10:16:29;;;;;;;1.38;0.40;;;;;;;;;;5082113;28;20055;-74
2023/09/09 10:19:02;;;;;;;2.17;0.50;;;;;;;;;;5081034;28;20059;-74
2023/09/09 10:21:33;;;;;;;0.40;0.40;;;;;;;;;;5082154;28;20070;-74
2023/09/09 10:24:12;;;;;;;0.90;0.40;;;;;;;;;;5081557;28;20491;-75
2023/09/09 10:26:44;;;;;;;0.90;0.40;;;;;;;;;;5079926;28;20525;-73
2023/09/09 10:29:15;;;;;;;1.05;0.60;;;;;;;;;;5081744;28;20048;-75
2023/09/09 10:31:48;;;;;;;1.00;0.50;;;;;;;;;;5081746;28;20055;-75
2023/09/09 10:34:22;;;;;;;5.38;0.68;;;;;;;;;;5081192;28;20570;-75
2023/09/09 10:36:55;;;;;;;4.30;0.93;;;;;;;;;;5082257;28;20063;-74
2023/09/09 10:39:32;;;;;;;4.78;0.70;;;;;;;;;;5081406;28;20052;-74
2023/09/09 10:42:05;;;;;;;2.97;0.80;;;;;;;;;;5081403;28;20058;-75
2023/09/09 10:44:35;;;;;;;2.35;0.70;;;;;;;;;;5081534;28;20040;-76
2023/09/09 10:47:09;;;;;;;0.65;0.30;;;;;;;;;;5081460;28;20048;-76
2023/09/09 10:49:39;;;;;;;0.90;0.60;;;;;;;;;;5082625;28;20048;-76
2023/09/09 10:52:30;;;;;;;1.00;0.40;;;;;;;;;;5082192;28;20051;-76
2023/09/09 10:55:12;;;;;;;2.05;0.40;;;;;;;;;;5081407;28;20407;-75
2023/09/09 10:57:43;;;;;;;1.20;0.60;;;;;;;;;;5081712;28;20048;-74
2023/09/09 11:00:44;;;;;;;3.80;0.70;;;;;;;;;;5081848;28;20058;-74
2023/09/09 11:03:16;;;;;;;7.78;0.50;;;;;;;;;;5080994;28;20048;-75
2023/09/09 11:06:00;;;;;;;0.73;0.45;;;;;;;;;;5081063;28;20109;-75
2023/09/09 11:08:32;;;;;;;5.18;0.60;;;;;;;;;;5081800;28;20050;-75
2023/09/09 11:11:11;;;;;;;0.57;0.40;;;;;;;;;;5081350;28;20048;-75
2023/09/09 11:13:49;;;;;;;0.43;0.40;;;;;;;;;;5080963;28;20433;-74
2023/09/09 11:16:28;;;;;;;2.95;0.45;;;;;;;;;;5081634;28;20048;-74
2023/09/09 11:19:10;;;;;;;1.00;0.40;;;;;;;;;;5080979;28;20519;-75
2023/09/09 11:21:44;;;;;;;0.40;0.40;;;;;;;;;;5081447;28;20450;-74
2023/09/09 11:24:14;;;;;;;2.30;0.52;;;;;;;;;;5081568;28;20509;-75
2023/09/09 11:26:53;;;;;;;0.73;0.70;;;;;;;;;;5081670;28;20052;-75
2023/09/09 11:29:23;;;;;;;0.80;0.60;;;;;;;;;;5079470;28;20052;-77
2023/09/09 11:32:11;;;;;;;2.40;0.40;;;;;;;;;;5082443;28;20040;-75
2023/09/09 11:34:43;;;;;;;0.40;0.40;;;;;;;;;;5085127;28;20055;-74
2023/09/09 11:37:15;;;;;;;2.80;0.40;;;;;;;;;;5085086;28;20051;-75
2023/09/09 11:39:46;;;;;;;0.40;0.40;;;;;;;;;;5085352;28;20044;-75
2023/09/09 11:42:17;;;;;;;0.85;0.45;;;;;;;;;;5085167;28;20051;-76
2023/09/09 11:44:47;;;;;;;0.85;0.50;;;;;;;;;;5084753;28;20058;-76
2023/09/09 11:47:19;;;;;;;2.63;0.65;;;;;;;;;;5085904;28;20052;-75
2023/09/09 11:49:50;;;;;;;1.45;0.30;;;;;;;;;;5084507;28;20411;-75
2023/09/09 11:52:21;;;;;;;0.60;0.50;;;;;;;;;;5085334;28;20051;-75
2023/09/09 11:54:52;;;;;;;0.45;0.38;;;;;;;;;;5084771;28;20514;-80
2023/09/09 11:57:23;;;;;;;1.17;0.60;;;;;;;;;;5083992;28;20522;-79
2023/09/09 11:59:57;;;;;;;2.60;0.40;;;;;;;;;;5084780;28;20043;-75
2023/09/09 12:02:28;;;;;;;0.50;0.50;;;;;;;;;;5084821;28;20620;-75
2023/09/09 12:05:04;;;;;;;0.70;0.50;;;;;;;;;;5084347;28;20055;-75
2023/09/09 12:07:38;;;;;;;3.40;0.70;;;;;;;;;;5085210;28;20596;-76
2023/09/09 12:10:14;;;;;;;0.82;0.77;;;;;;;;;;5085226;28;20538;-75
2023/09/09 12:12:46;;;;;;;0.90;0.60;;;;;;;;;;5084797;28;20048;-75
2023/09/09 12:15:17;;;;;;;1.33;0.60;;;;;;;;;;5085165;28;20491;-75
2023/09/09 12:17:47;;;;;;;0.77;0.77;;;;;;;;;;5084233;28;20052;-75
2023/09/09 12:20:19;;;;;;;2.40;0.73;;;;;;;;;;5084497;28;20047;-75
2023/09/09 12:22:51;;;;;;;0.77;0.68;;;;;;;;;;5081537;28;20067;-76
2023/09/09 12:25:34;;;;;;;0.70;0.70;;;;;;;;;;5084524;28;20521;-76
2023/09/09 12:28:17;;;;;;;0.70;0.70;;;;;;;;;;5084304;28;20494;-76
2023/09/09 12:30:51;;;;;;;0.70;0.70;;;;;;;;;;5084462;28;20063;-75
2023/09/09 12:33:21;;;;;;;2.15;0.40;;;;;;;;;;5083848;28;20052;-76
2023/09/09 12:35:52;;;;;;;0.60;0.50;;;;;;;;;;5083567;28;20047;-77
2023/09/09 12:38:22;;;;;;;1.80;0.50;;;;;;;;;;5084440;28;20056;-76
2023/09/09 12:41:11;;;;;;;0.75;0.60;;;;;;;;;;5084238;28;20052;-76
2023/09/09 12:43:42;;;;;;;1.05;0.77;;;;;;;;;;5083683;28;20056;-75
2023/09/09 12:46:17;;;;;;;0.73;0.60;;;;;;;;;;5082221;28;20060;-76
2023/09/09 12:49:00;;;;;;;1.08;0.90;;;;;;;;;;5083133;28;20048;-75
2023/09/09 12:51:37;;;;;;;0.70;0.70;;;;;;;;;;5084181;28;20055;-78
2023/09/09 12:54:07;;;;;;;1.98;0.80;;;;;;;;;;5083749;28;20521;-75
2023/09/09 12:56:38;;;;;;;0.60;0.60;;;;;;;;;;5081929;28;20048;-74
2023/09/09 12:59:09;;;;;;;1.92;0.80;;;;;;;;;;5083526;28;20055;-75
2023/09/09 13:01:39;;;;;;;0.90;0.55;;;;;;;;;;5081705;28;20052;-76
2023/09/09 13:04:10;;;;;;;1.42;0.60;;;;;;;;;;5081707;28;20055;-76
2023/09/09 13:06:40;;;;;;;0.63;0.60;;;;;;;;;;5083790;28;20048;-75
2023/09/09 13:09:12;;;;;;;1.90;0.70;;;;;;;;;;5083722;28;20044;-76
2023/09/09 13:11:43;;;;;;;1.05;0.80;;;;;;;;;;5083757;28;20048;-76
2023/09/09 13:14:13;;;;;;;0.50;0.50;;;;;;;;;;5083699;28;20044;-76
2023/09/09 13:16:54;;;;;;;0.50;0.50;;;;;;;;;;5083208;28;20050;-75
2023/09/09 13:19:26;;;;;;;0.93;0.73;;;;;;;;;;5082134;28;20048;-75
2023/09/09 13:22:00;;;;;;;1.08;1.00;;;;;;;;;;5083395;28;20510;-75
2023/09/09 13:24:30;;;;;;;2.35;1.20;;;;;;;;;;5083086;28;20056;-75
2023/09/09 13:27:00;;;;;;;1.80;1.15;;;;;;;;;;5082873;28;20051;-75
2023/09/09 13:29:33;;;;;;;1.52;0.88;;;;;;;;;;5081760;28;20059;-74
2023/09/09 13:32:03;;;;;;;1.30;1.00;;;;;;;;;;5083678;28;20052;-79
2023/09/09 13:34:34;;;;;;;3.63;0.95;;;;;;;;;;5082836;28;20495;-75
2023/09/09 13:37:04;;;;;;;1.77;1.10;;;;;;;;;;5083358;28;20505;-75
2023/09/09 13:39:34;;;;;;;1.30;1.00;;;;;;;;;;5082728;28;20040;-75
2023/09/09 13:42:06;;;;;;;1.92;0.88;;;;;;;;;;5081716;28;20047;-75
2023/09/09 13:44:37;;;;;;;0.90;0.70;;;;;;;;;;5082814;28;20052;-75
2023/09/09 13:47:27;;;;;;;1.20;0.90;;;;;;;;;;5082630;28;20048;-75
2023/09/09 13:50:04;;;;;;;1.30;0.88;;;;;;;;;;5082142;28;20503;-75
2023/09/09 13:52:36;;;;;;;3.08;1.08;;;;;;;;;;5083017;28;20044;-76
2023/09/09 13:55:07;;;;;;;1.55;0.95;;;;;;;;;;5082142;28;20044;-75
2023/09/09 13:57:38;;;;;;;1.08;0.98;;;;;;;;;;5082027;28;20063;-75
2023/09/09 14:00:08;;;;;;;1.30;1.05;;;;;;;;;;5082943;28;20052;-76
2023/09/09 14:02:41;;;;;;;1.40;0.98;;;;;;;;;;5082429;28;20040;-75
2023/09/09 14:05:12;;;;;;;1.17;0.88;;;;;;;;;;5082125;28;20039;-75
2023/09/09 14:07:42;;;;;;;1.25;0.80;;;;;;;;;;5083002;28;20048;-77
2023/09/09 14:10:12;;;;;;;2.83;1.00;;;;;;;;;;5083356;28;20044;-76
2023/09/09 14:12:42;;;;;;;1.38;0.80;;;;;;;;;;5082462;28;20047;-76
2023/09/09 14:15:15;;;;;;;0.95;0.90;;;;;;;;;;5081879;28;20044;-75
2023/09/09 14:17:46;;;;;;;2.42;0.95;;;;;;;;;;5082252;28;20059;-76
2023/09/09 14:20:16;;;;;;;3.63;1.13;;;;;;;;;;5082184;28;20048;-75
2023/09/09 14:22:48;;;;;;;1.30;1.20;;;;;;;;;;5082635;28;20044;-75
2023/09/09 14:25:20;;;;;;;2.35;1.00;;;;;;;;;;5081969;28;20074;-75
2023/09/09 14:27:50;;;;;;;1.92;1.08;;;;;;;;;;5081525;28;20044;-75
2023/09/09 14:30:20;;;;;;;1.60;0.77;;;;;;;;;;5080764;28;20052;-75
2023/09/09 14:32:51;;;;;;;0.60;0.60;;;;;;;;;;5082186;28;20052;-77
2023/09/09 14:35:22;;;;;;;4.07;1.13;;;;;;;;;;5082003;28;20051;-76
2023/09/09 14:37:52;;;;;;;1.92;0.70;;;;;;;;;;5081209;28;20048;-75
2023/09/09 14:40:22;;;;;;;1.35;0.80;;;;;;;;;;5082429;28;20047;-75
2023/09/09 14:42:52;;;;;;;1.17;0.85;;;;;;;;;;5080716;28;20051;-75
2023/09/09 14:45:23;;;;;;;3.67;0.80;;;;;;;;;;5082182;28;20052;-76
2023/09/09 14:48:00;;;;;;;1.13;0.60;;;;;;;;;;5081891;28;20044;-75
2023/09/09 14:50:30;;;;;;;1.80;0.88;;;;;;;;;;5081657;28;20048;-75
2023/09/09 14:53:00;;;;;;;4.60;1.25;;;;;;;;;;5081917;28;20581;-75
2023/09/09 14:55:31;;;;;;;1.95;0.70;;;;;;;;;;5082198;28;20426;-76
2023/09/09 14:58:01;;;;;;;1.75;0.90;;;;;;;;;;5082450;28;20387;-76
2023/09/09 15:00:32;;;;;;;3.20;0.85;;;;;;;;;;5081635;28;20060;-75
2023/09/09 15:03:03;;;;;;;1.27;0.70;;;;;;;;;;5081727;28;20803;-75
2023/09/09 15:05:34;;;;;;;1.15;0.80;;;;;;;;;;5081509;28;20522;-75
2023/09/09 15:08:05;;;;;;;0.70;0.70;;;;;;;;;;5085159;28;20506;-76
2023/09/09 15:10:35;;;;;;;1.38;0.70;;;;;;;;;;5085710;28;20075;-75
2023/09/09 15:13:06;;;;;;;1.30;0.60;;;;;;;;;;5085136;28;20395;-75